Time;durP1;ratioP1;P1;durP2;ratioP2;P2;SDS_P1;SDS_P2;PMS_P1;PMS_P2;Temp;Humidity;BMP_temperature;BMP_pressure;BME280_temperature;BME280_humidity;BME280_pressure;Samples;Min_cycle;Max_cycle;Signal;HPM_P1;HPM_P2
2023/08/31 00:01:49;;;;;;;5.75;2.25;;;14.40;91.60;;;16.15;61.80;97059.69;5012226;28;20042;-54
2023/08/31 00:04:17;;;;;;;3.08;2.17;;;14.40;92.60;;;16.15;61.67;97057.00;5026965;28;20057;-52
2023/08/31 00:06:46;;;;;;;4.95;2.75;;;14.30;92.60;;;16.11;61.71;97066.50;5011984;28;20037;-50
2023/08/31 00:09:14;;;;;;;5.57;2.80;;;14.30;92.60;;;16.11;61.71;97071.88;5012428;28;20069;-53
2023/08/31 00:11:42;;;;;;;3.53;2.17;;;14.30;92.20;;;16.02;61.82;97073.97;5012062;28;20109;-50
2023/08/31 00:14:09;;;;;;;6.28;2.60;;;14.30;92.90;;;15.93;62.13;97076.03;5010794;28;20049;-53
2023/08/31 00:16:37;;;;;;;2.95;2.53;;;14.20;92.90;;;15.93;62.23;97086.78;5012384;28;20057;-50
2023/08/31 00:19:05;;;;;;;3.05;2.35;;;14.20;93.20;;;15.93;62.30;97077.91;5011927;28;20053;-53
2023/08/31 00:21:32;;;;;;;5.68;2.67;;;14.20;93.00;;;15.84;62.49;97082.69;5012209;28;20068;-53
2023/08/31 00:24:00;;;;;;;5.63;2.50;;;14.20;93.60;;;15.85;62.49;97083.50;5011748;28;20160;-52
2023/08/31 00:26:30;;;;;;;3.15;2.08;;;14.20;93.40;;;15.79;62.46;97092.38;5012094;28;20340;-53
2023/08/31 00:28:58;;;;;;;6.38;4.38;;;14.10;94.20;;;15.75;62.58;97095.47;5012028;28;20540;-50
2023/08/31 00:31:27;;;;;;;3.88;2.20;;;14.10;94.80;;;15.77;62.68;97092.59;5027000;28;20045;-51
2023/08/31 00:33:55;;;;;;;3.17;2.10;;;14.10;94.10;;;15.78;62.75;97104.97;5012108;28;20049;-49
2023/08/31 00:36:23;;;;;;;3.78;2.38;;;14.10;94.20;;;15.77;62.85;97103.31;5009582;28;20042;-48
2023/08/31 00:38:50;;;;;;;7.13;2.60;;;14.10;93.90;;;15.72;62.69;97101.22;5017964;28;20049;-51
2023/08/31 00:41:18;;;;;;;3.53;2.28;;;14.10;94.30;;;15.73;62.81;97102.91;5011747;28;20053;-50
2023/08/31 00:43:46;;;;;;;4.93;3.05;;;14.10;94.10;;;15.75;62.71;97098.16;5026808;28;20054;-53
2023/08/31 00:46:14;;;;;;;4.22;2.90;;;14.10;93.80;;;15.73;62.83;97104.78;5009989;28;20046;-51
2023/08/31 00:48:42;;;;;;;3.63;2.25;;;14.10;93.60;;;15.73;62.68;97107.44;5011621;28;20037;-51
2023/08/31 00:51:10;;;;;;;3.10;2.17;;;14.10;94.00;;;15.75;62.88;97105.38;5010401;28;20524;-51
2023/08/31 00:53:38;;;;;;;3.92;2.00;;;14.10;93.30;;;15.68;63.04;97105.38;5026525;28;20062;-51
2023/08/31 00:56:07;;;;;;;2.95;2.10;;;14.10;94.80;;;15.72;63.00;97093.19;4994306;28;20061;-48
2023/08/31 00:58:35;;;;;;;5.20;2.53;;;14.10;94.10;;;15.78;63.00;97094.25;4994027;28;20049;-47
2023/08/31 01:01:35;;;;;;;7.22;2.90;;;14.20;93.20;;;15.77;62.78;97081.84;5018009;28;20057;-52
2023/08/31 01:04:24;;;;;;;4.90;2.55;;;14.10;93.30;;;15.78;62.62;97077.31;5009932;28;20056;-49
2023/08/31 01:07:13;;;;;;;4.32;2.50;;;14.10;93.70;;;15.77;62.64;97084.53;5011336;28;20456;-48
2023/08/31 01:09:46;;;;;;;4.43;2.13;;;14.10;93.40;;;15.79;62.46;97090.50;4994903;28;20046;-50
2023/08/31 01:12:30;;;;;;;7.43;4.20;;;14.10;92.80;;;15.76;62.47;97093.63;5009888;28;20049;-50
2023/08/31 01:15:12;;;;;;;3.75;2.10;;;14.10;93.50;;;15.77;62.58;97097.13;5010805;28;20501;-50
2023/08/31 01:17:50;;;;;;;3.95;2.50;;;14.10;92.70;;;15.72;62.42;97093.19;5018077;28;20054;-50
2023/08/31 01:20:55;;;;;;;6.32;2.97;;;14.00;93.20;;;15.69;62.37;97098.94;5002257;28;20053;-51
2023/08/31 01:23:54;;;;;;;5.68;2.40;;;14.10;92.50;;;15.67;62.58;97097.53;5005740;28;20061;-49
2023/08/31 01:26:23;;;;;;;4.95;2.30;;;14.10;92.80;;;15.67;62.49;97097.53;4989114;28;20497;-48
2023/08/31 01:28:52;;;;;;;3.80;2.40;;;14.00;92.40;;;15.63;62.63;97102.47;5009826;28;20038;-50
2023/08/31 01:31:20;;;;;;;4.10;2.20;;;14.10;92.80;;;15.60;62.50;97107.41;5010826;28;20122;-49
2023/08/31 01:33:48;;;;;;;5.15;2.83;;;14.00;92.90;;;15.63;62.65;97107.03;5010856;28;20046;-49
2023/08/31 01:36:33;;;;;;;4.55;2.63;;;14.00;93.30;;;15.52;62.78;97111.13;4993704;28;20072;-51
2023/08/31 01:39:24;;;;;;;7.65;2.75;;;13.90;92.70;;;15.48;63.02;97124.13;5009695;28;20444;-50
2023/08/31 01:41:58;;;;;;;3.17;2.35;;;13.80;94.00;;;15.51;63.41;97129.09;5010499;28;20421;-51
2023/08/31 01:44:26;;;;;;;;;;;13.80;94.10;;;15.51;63.14;97117.53;5009856;28;20052;-49
2023/08/31 01:46:54;;;;;;;5.40;2.22;;;13.90;94.20;;;15.50;63.18;97131.97;5009743;28;19921;-52
2023/08/31 01:49:24;;;;;;;4.95;2.22;;;13.80;93.90;;;15.54;63.04;97128.66;5010920;28;20046;-52
2023/08/31 01:51:52;;;;;;;4.90;2.97;;;14.00;93.80;;;15.59;63.10;97129.94;5026120;28;20053;-53
2023/08/31 01:54:21;;;;;;;3.08;2.22;;;14.00;93.20;;;15.61;62.94;97122.50;5025214;28;20054;-51
2023/08/31 01:56:48;;;;;;;5.30;2.95;;;14.10;92.40;;;15.56;62.80;97126.59;4993539;28;20736;-51
2023/08/31 01:59:16;;;;;;;3.45;2.38;;;14.10;92.10;;;15.52;63.01;97132.59;5026132;28;20062;-48
2023/08/31 02:01:44;;;;;;;4.38;2.80;;;14.00;91.60;;;15.51;63.05;97133.63;5025802;28;20506;-52
2023/08/31 02:04:11;;;;;;;11.43;3.25;;;13.90;93.20;;;15.54;63.13;97125.16;4993116;28;20100;-49
2023/08/31 02:06:39;;;;;;;6.57;2.63;;;14.00;92.50;;;15.60;62.96;97132.38;5010867;28;20540;-48
2023/08/31 02:09:07;;;;;;;4.65;2.30;;;14.00;92.70;;;15.61;62.92;97127.88;5010469;28;20513;-49
2023/08/31 02:11:37;;;;;;;4.07;2.30;;;14.10;92.30;;;15.65;62.89;97132.59;5025583;28;20045;-51
2023/08/31 02:14:06;;;;;;;4.70;2.50;;;14.20;91.90;;;15.69;62.60;97128.47;5010199;28;20038;-53
2023/08/31 02:16:34;;;;;;;4.55;2.55;;;14.10;91.30;;;15.73;62.73;97129.75;5001314;28;20054;-48
2023/08/31 02:19:02;;;;;;;4.07;2.35;;;14.20;91.50;;;15.75;62.41;97125.00;5008986;28;20050;-50
2023/08/31 02:21:30;;;;;;;3.85;2.42;;;14.20;90.70;;;15.73;62.14;97128.91;5010483;28;20533;-52
2023/08/31 02:23:57;;;;;;;4.28;2.92;;;14.20;91.60;;;15.77;62.21;97127.47;5010060;28;20041;-53
2023/08/31 02:26:25;;;;;;;3.33;2.33;;;14.20;91.20;;;15.72;62.35;97125.38;5017906;28;20413;-49
2023/08/31 02:28:53;;;;;;;3.85;2.17;;;14.20;91.30;;;15.70;62.24;97119.41;5012589;28;20046;-53
2023/08/31 02:31:20;;;;;;;4.13;2.38;;;14.10;91.40;;;15.71;62.37;97128.28;5013790;28;20049;-53
2023/08/31 02:33:49;;;;;;;5.88;2.47;;;14.10;91.30;;;15.72;62.28;97129.91;5013936;28;20052;-50
2023/08/31 02:36:17;;;;;;;5.97;2.35;;;14.10;91.50;;;15.72;62.35;97135.28;5012769;28;20042;-48
2023/08/31 02:38:46;;;;;;;4.22;2.65;;;14.10;91.60;;;15.72;62.14;97130.75;5029524;28;20437;-50
2023/08/31 02:41:13;;;;;;;5.30;2.92;;;14.10;90.70;;;15.68;62.24;97140.25;5013214;28;20060;-53
2023/08/31 02:43:41;;;;;;;3.83;2.35;;;14.10;91.80;;;15.70;62.28;97151.59;5013809;28;20310;-51
2023/08/31 02:46:10;;;;;;;3.38;2.30;;;14.10;91.60;;;15.69;62.39;97151.81;5013907;28;20037;-50
2023/08/31 02:48:38;;;;;;;4.18;2.70;;;14.10;91.00;;;15.68;62.35;97166.25;5013999;28;20050;-52
2023/08/31 02:51:06;;;;;;;5.15;3.05;;;14.10;91.50;;;15.60;62.53;97151.16;5029078;28;20509;-51
2023/08/31 02:53:34;;;;;;;5.88;2.35;;;14.00;92.20;;;15.61;62.53;97160.06;5012116;28;20054;-52
2023/08/31 02:56:02;;;;;;;4.20;2.30;;;14.00;92.50;;;15.61;62.86;97152.81;5029236;28;20052;-51
2023/08/31 02:58:30;;;;;;;5.63;2.50;;;14.00;92.30;;;15.66;62.57;97160.25;5029555;28;20053;-52
2023/08/31 03:01:11;;;;;;;4.15;2.40;;;14.10;91.60;;;15.65;62.63;97156.75;5014070;28;20052;-51
2023/08/31 03:03:43;;;;;;;4.53;2.30;;;14.10;92.10;;;15.66;62.54;97163.75;5028907;28;20030;-52
2023/08/31 03:06:11;;;;;;;5.65;2.75;;;14.10;91.70;;;15.67;62.61;97159.22;5013576;28;20516;-48
2023/08/31 03:08:39;;;;;;;4.53;2.65;;;14.10;91.40;;;15.67;62.24;97162.75;5013426;28;20049;-51
2023/08/31 03:11:06;;;;;;;3.47;2.35;;;14.10;91.60;;;15.68;62.37;97164.41;5028365;28;20038;-53
2023/08/31 03:13:36;;;;;;;2.97;2.40;;;14.10;91.30;;;15.68;62.14;97168.91;5013323;28;20041;-49
2023/08/31 03:16:04;;;;;;;3.20;2.38;;;14.10;91.10;;;15.65;62.28;97172.84;5028115;28;20041;-53
2023/08/31 03:18:32;;;;;;;5.10;2.50;;;14.10;91.20;;;15.66;62.27;97168.31;5028695;28;20057;-51
2023/08/31 03:20:59;;;;;;;3.78;2.33;;;14.10;91.20;;;15.65;62.39;97163.97;5028233;28;20046;-48
2023/08/31 03:23:29;;;;;;;4.85;2.50;;;14.10;91.50;;;15.61;62.51;97168.94;5013136;28;20069;-52
2023/08/31 03:25:57;;;;;;;3.53;2.28;;;14.00;91.90;;;15.65;62.27;97166.66;5019764;28;20053;-52
2023/08/31 03:28:26;;;;;;;5.18;2.40;;;14.00;91.70;;;15.65;61.93;97170.16;5013163;28;20038;-49
2023/08/31 03:30:57;;;;;;;4.95;2.58;;;13.90;92.10;;;15.62;62.13;97162.50;5013015;28;20049;-50
2023/08/31 03:33:25;;;;;;;5.03;2.92;;;13.90;92.20;;;15.58;62.17;97165.81;5028218;28;20054;-51
2023/08/31 03:35:53;;;;;;;3.40;2.22;;;13.80;93.00;;;15.56;62.34;97176.75;5028807;28;20386;-49
2023/08/31 03:38:21;;;;;;;3.85;2.70;;;13.80;93.00;;;15.52;62.55;97178.19;5024444;28;20053;-52
2023/08/31 03:40:55;;;;;;;5.18;2.45;;;13.80;93.30;;;15.50;62.41;97178.41;5027878;28;20053;-50
2023/08/31 03:43:23;;;;;;;4.75;2.42;;;13.80;93.40;;;15.52;62.24;97173.66;4994995;28;20073;-52
2023/08/31 03:45:56;;;;;;;5.13;2.72;;;13.80;93.00;;;15.50;62.55;97181.06;5019738;28;20517;-51
2023/08/31 03:48:25;;;;;;;2.75;2.25;;;13.80;92.20;;;15.50;62.64;97185.63;5011562;28;20409;-51
2023/08/31 03:50:55;;;;;;;13.90;3.10;;;13.90;92.60;;;15.52;62.75;97183.56;5010892;28;20050;-52
2023/08/31 03:53:23;;;;;;;3.88;2.17;;;13.90;92.30;;;15.52;62.42;97179.00;5019544;28;20053;-51
2023/08/31 03:55:55;;;;;;;5.03;2.35;;;13.90;91.70;;;15.48;62.46;97185.00;5027744;28;20042;-49
2023/08/31 03:58:24;;;;;;;5.88;3.00;;;13.80;92.60;;;15.48;62.37;97187.69;5019166;28;20046;-49
2023/08/31 04:00:54;;;;;;;4.53;2.40;;;13.80;92.80;;;15.51;62.49;97195.34;5011336;28;20301;-49
2023/08/31 04:03:22;;;;;;;3.08;2.47;;;13.80;92.30;;;15.54;62.32;97192.22;5018880;28;20052;-49
2023/08/31 04:05:55;;;;;;;4.75;2.28;;;13.80;92.00;;;15.50;62.41;97199.03;5019306;28;20064;-53
2023/08/31 04:08:23;;;;;;;6.63;2.53;;;13.80;92.70;;;15.45;62.43;97199.66;5019129;28;20038;-49
2023/08/31 04:10:50;;;;;;;3.97;2.95;;;13.80;92.60;;;15.47;62.37;97200.28;5027106;28;20410;-49
2023/08/31 04:13:18;;;;;;;4.72;2.42;;;13.80;92.30;;;15.43;62.60;97196.34;5027158;28;20061;-52
2023/08/31 04:15:47;;;;;;;6.97;2.17;;;13.80;92.00;;;15.47;62.54;97196.75;5019122;28;20042;-49
2023/08/31 04:18:15;;;;;;;5.63;2.78;;;13.80;92.60;;;15.47;62.57;97194.06;4994537;28;20425;-47
2023/08/31 04:20:54;;;;;;;3.85;2.47;;;13.80;92.40;;;15.47;62.39;97194.06;5011797;28;20041;-47
2023/08/31 04:23:22;;;;;;;3.85;2.45;;;13.80;93.10;;;15.49;62.51;97192.84;5011507;28;20050;-49
2023/08/31 04:25:51;;;;;;;3.85;2.47;;;13.80;92.80;;;15.52;62.69;97205.03;5012036;28;20053;-53
2023/08/31 04:28:19;;;;;;;6.55;2.47;;;13.90;92.20;;;15.50;62.57;97199.84;5012012;28;20406;-48
2023/08/31 04:30:47;;;;;;;6.28;2.60;;;13.80;92.10;;;15.48;62.72;97204.59;5012029;28;20034;-50
2023/08/31 04:33:14;;;;;;;5.28;2.65;;;13.80;92.70;;;15.49;62.76;97205.41;5011501;28;20061;-51
2023/08/31 04:35:42;;;;;;;4.50;2.40;;;13.80;93.10;;;15.49;62.62;97208.09;5011971;28;20432;-48
2023/08/31 04:38:10;;;;;;;3.50;2.30;;;13.80;93.10;;;15.49;62.54;97206.25;5011392;28;20053;-51
2023/08/31 04:40:38;;;;;;;4.55;2.58;;;13.80;93.10;;;15.50;62.73;97215.94;5011025;28;20052;-49
2023/08/31 04:43:06;;;;;;;3.55;2.72;;;13.80;92.60;;;15.50;62.57;97213.25;5011626;28;20041;-51
2023/08/31 04:45:33;;;;;;;2.90;2.60;;;13.80;93.80;;;15.51;62.61;97216.78;5012093;28;20053;-51
2023/08/31 04:48:01;;;;;;;6.47;2.58;;;13.80;93.70;;;15.52;62.61;97221.13;5011968;28;20041;-50
2023/08/31 04:50:29;;;;;;;3.72;2.50;;;13.80;93.40;;;15.53;62.67;97220.09;5011757;28;20049;-49
2023/08/31 04:52:56;;;;;;;4.03;2.55;;;13.80;93.80;;;15.52;62.39;97215.75;5011957;28;20490;-51
2023/08/31 04:55:25;;;;;;;5.00;3.15;;;13.80;94.00;;;15.52;62.71;97221.13;5027013;28;20077;-51
2023/08/31 04:57:52;;;;;;;3.85;2.17;;;13.80;94.20;;;15.49;62.88;97224.19;5011500;28;20052;-48
2023/08/31 05:00:20;;;;;;;6.05;2.55;;;13.70;94.40;;;15.48;62.79;97225.25;5011521;28;20057;-50
2023/08/31 05:02:48;;;;;;;6.78;2.67;;;13.70;95.20;;;15.48;62.83;97225.25;5011216;28;20045;-51
2023/08/31 05:05:15;;;;;;;5.40;2.83;;;13.70;95.00;;;15.48;62.88;97225.25;5011264;28;20050;-49
2023/08/31 05:07:43;;;;;;;4.22;2.25;;;13.70;95.10;;;15.48;62.76;97230.59;5011416;28;20042;-52
2023/08/31 05:10:11;;;;;;;6.50;3.50;;;13.70;95.40;;;15.46;62.91;97228.13;5011207;28;20038;-51
2023/08/31 05:12:39;;;;;;;7.00;3.17;;;13.70;95.20;;;15.43;62.98;97222.31;5011020;28;20517;-52
2023/08/31 05:15:07;;;;;;;4.90;2.38;;;13.70;95.20;;;15.37;63.17;97234.69;5011389;28;20042;-52
2023/08/31 05:17:35;;;;;;;4.18;2.10;;;13.70;95.60;;;15.39;63.01;97235.31;5003388;28;20045;-55
2023/08/31 05:20:04;;;;;;;3.83;2.30;;;13.70;95.10;;;15.38;63.12;97239.03;5011023;28;20045;-50
2023/08/31 05:22:32;;;;;;;4.10;2.63;;;13.80;94.90;;;15.38;63.65;97241.72;5009491;28;20528;-54
2023/08/31 05:25:00;;;;;;;3.83;2.50;;;13.80;95.20;;;15.39;63.37;97251.41;5011177;28;20418;-53
2023/08/31 05:27:28;;;;;;;3.00;2.40;;;13.80;94.90;;;15.41;63.51;97252.06;5010998;28;20053;-54
2023/08/31 05:29:55;;;;;;;5.72;3.10;;;13.80;94.90;;;15.38;63.43;97254.31;5025962;28;20038;-54
2023/08/31 05:32:23;;;;;;;6.50;2.63;;;13.70;95.30;;;15.35;63.51;97252.84;5010753;28;20046;-50
2023/08/31 05:34:51;;;;;;;6.93;2.83;;;13.70;95.50;;;15.38;63.61;97262.34;5010986;28;20414;-52
2023/08/31 05:37:18;;;;;;;5.00;2.60;;;13.70;95.60;;;15.41;63.50;97265.47;5011026;28;20053;-53
2023/08/31 05:39:49;;;;;;;5.85;2.40;;;13.80;95.00;;;15.42;63.25;97264.44;5010311;28;20069;-52
2023/08/31 05:42:17;;;;;;;7.75;2.35;;;13.80;94.40;;;15.43;63.43;97263.41;5017477;28;20060;-53
2023/08/31 05:44:45;;;;;;;5.85;3.22;;;13.90;93.70;;;15.35;63.41;97267.09;5009640;28;20042;-52
2023/08/31 05:47:13;;;;;;;6.18;2.65;;;13.80;93.60;;;15.34;63.26;97265.44;5010699;28;20410;-49
2023/08/31 05:49:40;;;;;;;6.93;2.63;;;13.80;94.20;;;15.34;63.28;97267.28;5010895;28;20041;-49
2023/08/31 05:52:08;;;;;;;7.38;2.42;;;13.90;92.70;;;15.34;63.33;97260.06;5025750;28;20042;-52
2023/08/31 05:54:36;;;;;;;3.22;1.90;;;13.90;92.10;;;15.33;63.22;97262.94;5026030;28;20041;-53
2023/08/31 05:57:05;;;;;;;3.30;2.40;;;13.90;91.30;;;15.34;63.20;97261.94;5026252;28;20509;-52
2023/08/31 05:59:33;;;;;;;4.90;2.30;;;13.90;91.00;;;15.34;62.94;97265.44;5010522;28;20422;-53
2023/08/31 06:02:00;;;;;;;3.50;1.75;;;13.90;91.20;;;15.35;62.95;97272.47;5012300;28;20042;-51
2023/08/31 06:04:28;;;;;;;4.22;2.38;;;13.90;90.70;;;15.42;62.79;97271.66;5014097;28;20052;-53
2023/08/31 06:06:55;;;;;;;3.75;2.25;;;14.00;90.60;;;15.43;62.89;97278.66;5014815;28;20053;-50
2023/08/31 06:09:23;;;;;;;4.05;2.42;;;14.00;90.40;;;15.43;62.88;97278.66;5014311;28;20041;-51
2023/08/31 06:11:51;;;;;;;5.28;2.80;;;14.00;90.00;;;15.45;62.85;97276.59;5014239;28;20509;-54
2023/08/31 06:14:19;;;;;;;3.92;2.28;;;14.00;91.00;;;15.50;62.85;97285.69;5014211;28;20046;-52
2023/08/31 06:16:47;;;;;;;5.50;2.25;;;14.10;89.70;;;15.52;62.80;97282.81;5014193;28;20045;-54
2023/08/31 06:19:15;;;;;;;5.50;2.47;;;14.00;91.20;;;15.54;62.58;97286.13;5021102;28;20061;-56
2023/08/31 06:21:43;;;;;;;4.88;2.50;;;14.10;91.10;;;15.54;62.88;97286.13;5014060;28;20053;-55
2023/08/31 06:24:12;;;;;;;6.30;2.35;;;14.10;90.90;;;15.60;62.78;97295.22;5014202;28;20490;-55
2023/08/31 06:26:40;;;;;;;5.55;1.80;;;14.10;91.80;;;15.63;62.65;97287.59;5005182;28;20064;-51
2023/08/31 06:29:10;;;;;;;4.70;2.17;;;14.20;90.30;;;15.62;62.64;97295.84;5014363;28;20042;-55
2023/08/31 06:31:38;;;;;;;5.07;2.10;;;14.20;89.90;;;15.68;62.64;97292.34;5014153;28;20038;-52
2023/08/31 06:34:05;;;;;;;4.70;2.20;;;14.20;91.00;;;15.76;62.42;97297.59;5014106;28;20674;-57
2023/08/31 06:36:34;;;;;;;4.68;2.22;;;14.40;89.60;;;15.83;62.46;97308.34;5014142;28;20050;-54
2023/08/31 06:39:01;;;;;;;2.53;1.83;;;14.50;88.90;;;15.86;62.08;97311.44;5008964;28;20045;-53
2023/08/31 06:41:30;;;;;;;6.95;2.60;;;14.50;87.60;;;15.92;61.93;97318.69;5013937;28;20049;-53
2023/08/31 06:43:57;;;;;;;3.35;2.28;;;14.60;88.00;;;15.94;61.92;97321.97;5013644;28;20049;-53
2023/08/31 06:46:25;;;;;;;5.05;2.80;;;14.60;87.50;;;16.03;61.84;97319.94;5013750;28;20506;-56
2023/08/31 06:48:53;;;;;;;6.88;3.15;;;14.70;86.10;;;16.07;61.63;97333.78;5012922;28;20490;-52
2023/08/31 06:51:20;;;;;;;3.10;1.63;;;14.80;85.30;;;16.05;61.24;97323.25;5013457;28;20046;-54
2023/08/31 06:53:51;;;;;;;5.57;1.90;;;14.80;85.10;;;16.07;61.00;97313.13;5013659;28;20041;-55
2023/08/31 06:56:19;;;;;;;4.05;2.28;;;14.80;84.70;;;16.13;60.92;97315.00;5013642;28;20528;-53
2023/08/31 06:58:47;;;;;;;4.35;2.08;;;14.90;84.50;;;16.05;60.59;97309.84;5013745;28;20037;-51
2023/08/31 07:01:14;;;;;;;5.60;1.95;;;14.80;82.30;;;16.18;60.54;97311.69;5013109;28;20064;-52
2023/08/31 07:03:42;;;;;;;4.47;2.03;;;14.90;84.20;;;16.24;60.38;97318.09;5013004;28;20437;-53
2023/08/31 07:06:10;;;;;;;4.25;2.20;;;14.90;83.00;;;16.22;60.35;97318.31;5013273;28;20441;-50
2023/08/31 07:08:40;;;;;;;3.47;1.80;;;14.90;83.50;;;16.30;60.49;97320.81;5012115;28;20053;-54
2023/08/31 07:11:08;;;;;;;6.18;2.20;;;15.00;83.90;;;16.38;60.17;97324.31;5012977;28;20042;-54
2023/08/31 07:13:35;;;;;;;6.70;2.45;;;15.00;82.70;;;16.38;59.76;97332.38;5011766;28;20046;-54
2023/08/31 07:16:04;;;;;;;4.70;2.25;;;15.10;82.30;;;16.43;59.68;97335.28;5013545;28;20038;-53
2023/08/31 07:18:32;;;;;;;2.55;1.67;;;15.10;82.20;;;16.44;59.56;97328.84;5013341;28;20316;-50
2023/08/31 07:20:59;;;;;;;3.22;2.00;;;15.20;82.20;;;16.52;59.57;97339.41;5013202;28;20046;-53
2023/08/31 07:23:27;;;;;;;4.53;1.70;;;15.30;82.10;;;16.52;59.49;97332.19;5011712;28;20072;-54
2023/08/31 07:25:59;;;;;;;6.05;2.13;;;15.30;81.70;;;16.58;59.58;97343.16;5013154;28;20037;-55
2023/08/31 07:28:27;;;;;;;7.57;2.13;;;15.30;82.10;;;16.67;59.47;97344.56;5011913;28;20056;-50
2023/08/31 07:31:06;;;;;;;3.30;1.90;;;15.40;82.20;;;16.73;59.01;97357.19;5013058;28;20034;-53
2023/08/31 07:33:35;;;;;;;4.25;2.33;;;15.50;79.50;;;16.77;59.39;97365.66;5027910;28;20422;-53
2023/08/31 07:36:05;;;;;;;5.22;2.10;;;15.60;81.50;;;16.70;58.14;97366.47;5011901;28;20057;-54
2023/08/31 07:38:33;;;;;;;4.60;2.10;;;15.60;77.30;;;16.57;57.00;97365.66;5012718;28;20045;-53
2023/08/31 07:41:01;;;;;;;3.67;1.90;;;15.50;73.70;;;16.53;57.35;97366.06;4994542;28;20421;-49
2023/08/31 07:43:29;;;;;;;4.95;2.05;;;15.50;75.70;;;16.47;57.72;97366.88;5012465;28;20049;-52
2023/08/31 07:45:57;;;;;;;3.75;2.25;;;15.50;76.50;;;16.47;57.58;97371.44;5012803;28;20390;-53
2023/08/31 07:48:24;;;;;;;3.80;2.00;;;15.50;76.40;;;16.41;58.13;97374.97;5012652;28;20049;-53
2023/08/31 07:50:52;;;;;;;7.43;2.08;;;15.50;76.50;;;16.64;58.06;97371.88;5012952;28;20042;-52
2023/08/31 07:53:20;;;;;;;2.70;1.55;;;15.50;78.10;;;16.78;57.82;97367.31;5027514;28;20046;-54
2023/08/31 07:55:54;;;;;;;2.72;1.80;;;15.60;78.00;;;16.71;57.33;97375.38;5012695;28;20050;-54
2023/08/31 07:58:23;;;;;;;4.22;2.20;;;15.60;77.00;;;16.77;57.23;97371.88;5012624;28;20426;-51
2023/08/31 08:00:55;;;;;;;5.82;2.28;;;15.60;75.30;;;16.81;57.05;97370.44;5012578;28;20050;-53
2023/08/31 08:03:23;;;;;;;6.47;2.10;;;15.50;77.00;;;16.83;57.10;97375.63;5012832;28;20064;-54
2023/08/31 08:05:51;;;;;;;4.07;2.17;;;15.50;77.40;;;16.98;57.40;97378.91;5005328;28;20421;-51
2023/08/31 08:08:19;;;;;;;4.47;2.25;;;15.70;78.00;;;16.91;56.85;97375.41;5013559;28;20046;-54
2023/08/31 08:10:47;;;;;;;4.78;2.40;;;15.80;76.00;;;16.89;56.62;97380.16;5013052;28;20042;-55
2023/08/31 08:13:15;;;;;;;3.60;2.05;;;15.80;75.80;;;16.93;56.47;97387.59;5011268;28;20490;-53
2023/08/31 08:15:43;;;;;;;3.22;2.05;;;15.90;75.30;;;16.90;55.95;97382.66;5012025;28;20041;-53
2023/08/31 08:18:10;;;;;;;4.20;2.20;;;15.90;73.20;;;16.77;56.41;97384.47;5003540;28;20060;-52
2023/08/31 08:20:38;;;;;;;7.47;2.20;;;15.90;73.30;;;16.87;56.82;97384.94;5000251;28;20057;-50
2023/08/31 08:23:06;;;;;;;3.53;2.05;;;15.90;75.30;;;16.91;56.75;97392.38;5005757;28;20408;-52
2023/08/31 08:25:34;;;;;;;7.57;1.90;;;16.00;74.00;;;17.10;56.47;97388.00;5005690;28;20429;-53
2023/08/31 08:28:03;;;;;;;3.50;2.10;;;16.20;74.40;;;17.24;56.13;97396.06;5004145;28;20109;-50
2023/08/31 08:30:30;;;;;;;5.15;2.33;;;16.30;73.60;;;17.29;54.92;97391.72;5005306;28;20038;-52
2023/08/31 08:32:58;;;;;;;5.80;2.40;;;16.30;71.20;;;17.47;55.29;97390.22;5005943;28;20363;-55
2023/08/31 08:35:26;;;;;;;6.25;3.30;;;16.40;72.60;;;17.51;54.57;97388.75;5004840;28;20037;-49
2023/08/31 08:37:54;;;;;;;3.80;2.10;;;16.50;71.10;;;17.62;54.64;97398.00;5005999;28;20042;-55
2023/08/31 08:40:22;;;;;;;4.00;1.98;;;16.50;71.50;;;17.76;53.92;97396.94;5002452;28;20489;-51
2023/08/31 08:42:53;;;;;;;5.13;2.17;;;16.70;68.50;;;17.72;53.25;97401.13;5003129;28;20050;-54
2023/08/31 08:45:25;;;;;;;4.85;2.47;;;16.70;68.00;;;17.77;53.20;97397.78;5004381;28;20418;-54
2023/08/31 08:47:54;;;;;;;4.53;2.30;;;16.70;68.90;;;17.75;52.85;97399.84;5006080;28;20049;-55
2023/08/31 08:50:23;;;;;;;3.38;2.05;;;16.70;67.30;;;17.58;53.07;97396.78;5003688;28;20046;-54
2023/08/31 08:52:51;;;;;;;4.15;2.03;;;16.70;67.90;;;17.76;52.71;97409.56;5003909;28;20512;-51
2023/08/31 08:55:20;;;;;;;4.75;1.95;;;16.70;66.30;;;17.72;52.43;97395.72;5005214;28;20046;-55
2023/08/31 08:57:47;;;;;;;4.43;1.80;;;16.70;67.80;;;17.87;52.12;97404.41;5006590;28;20050;-54
2023/08/31 09:00:15;;;;;;;3.75;2.22;;;16.80;66.90;;;17.82;51.53;97406.88;5005367;28;20942;-52
2023/08/31 09:02:44;;;;;;;2.78;1.80;;;16.80;65.30;;;17.75;50.82;97403.34;5004870;28;20497;-52
2023/08/31 09:05:12;;;;;;;6.95;2.00;;;16.80;64.50;;;17.79;50.03;97411.84;5006276;28;20516;-52
2023/08/31 09:08:13;;;;;;;5.65;2.08;;;16.80;63.20;;;17.87;50.10;97408.94;5005948;28;20152;-54
2023/08/31 09:10:44;;;;;;;3.00;1.88;;;16.90;62.40;;;18.05;51.25;97403.69;5004954;28;20417;-52
2023/08/31 09:13:17;;;;;;;4.05;2.22;;;17.00;66.00;;;18.06;51.61;97412.59;5005085;28;20052;-51
2023/08/31 09:15:49;;;;;;;3.47;1.98;;;17.10;66.00;;;18.14;50.55;97409.63;5005356;28;20060;-53
2023/08/31 09:18:28;;;;;;;4.65;2.47;;;17.00;63.90;;;17.94;48.22;97415.13;5005178;28;20084;-54
2023/08/31 09:20:57;;;;;;;3.10;1.73;;;17.00;58.60;;;17.81;49.39;97409.75;5018714;28;20046;-54
2023/08/31 09:23:25;;;;;;;3.92;2.33;;;17.00;60.80;;;17.89;49.41;97415.78;5004954;28;20050;-53
2023/08/31 09:25:55;;;;;;;3.40;1.95;;;17.00;59.10;;;17.96;48.65;97412.22;5001757;28;20065;-53
2023/08/31 09:28:29;;;;;;;3.92;2.38;;;17.00;60.60;;;17.94;48.61;97428.59;5003803;28;20524;-53
2023/08/31 09:31:08;;;;;;;5.82;2.25;;;17.00;60.60;;;18.03;48.09;97426.47;5004317;28;20514;-53
2023/08/31 09:33:37;;;;;;;2.72;1.95;;;17.00;58.80;;;17.98;48.11;97427.13;5005619;28;20041;-54
2023/08/31 09:36:07;;;;;;;3.58;1.67;;;17.10;58.50;;;17.89;47.20;97418.47;5004899;28;20274;-54
2023/08/31 09:38:45;;;;;;;3.10;2.08;;;17.10;57.10;;;17.71;45.81;97413.72;5003957;28;20053;-54
2023/08/31 09:41:13;;;;;;;5.05;1.80;;;17.00;55.50;;;17.80;46.35;97418.91;5003830;28;20045;-54
2023/08/31 09:43:43;;;;;;;3.00;1.80;;;17.00;55.90;;;17.88;46.22;97413.28;5004367;28;20042;-53
2023/08/31 09:46:11;;;;;;;4.63;1.90;;;17.10;56.70;;;17.91;45.34;97420.94;5005905;28;20417;-49
2023/08/31 09:48:41;;;;;;;2.55;1.23;;;17.10;54.20;;;18.07;46.03;97416.94;5005591;28;20516;-49
2023/08/31 09:51:10;;;;;;;4.20;1.70;;;17.20;56.70;;;18.06;45.30;97409.91;5005376;28;20104;-53
2023/08/31 09:53:39;;;;;;;3.33;1.92;;;17.20;54.60;;;18.22;46.01;97420.19;4972004;28;20522;-52
2023/08/31 09:56:07;;;;;;;4.20;1.77;;;17.20;56.30;;;18.19;45.48;97415.22;4989180;28;20048;-54
2023/08/31 09:58:35;;;;;;;4.97;2.28;;;17.30;55.90;;;18.33;45.67;97418.66;5001363;28;20134;-54
2023/08/31 10:01:03;;;;;;;3.55;1.60;;;17.40;55.90;;;18.33;44.56;97431.31;5002230;28;20042;-54
2023/08/31 10:03:40;;;;;;;5.20;2.15;;;17.40;52.90;;;18.16;44.05;97433.69;5003293;28;20053;-51
2023/08/31 10:06:09;;;;;;;4.78;1.90;;;17.40;51.90;;;18.22;44.55;97433.66;5004296;28;20068;-53
2023/08/31 10:08:40;;;;;;;5.53;2.25;;;17.50;54.40;;;18.10;43.06;97435.34;5003196;28;20046;-54
2023/08/31 10:11:12;;;;;;;3.88;1.75;;;17.30;50.60;;;18.20;43.79;97424.94;5004251;28;20045;-51
2023/08/31 10:13:42;;;;;;;7.05;2.00;;;17.30;53.10;;;18.34;44.22;97430.25;5005019;28;20042;-54
2023/08/31 10:16:11;;;;;;;4.05;1.70;;;17.40;53.50;;;18.35;45.26;97430.03;5003667;28;20042;-55
2023/08/31 10:18:39;;;;;;;7.70;2.00;;;17.50;54.80;;;18.52;45.11;97433.06;5004121;28;20046;-53
2023/08/31 10:21:07;;;;;;;5.70;2.00;;;17.60;55.50;;;18.45;44.44;97434.97;5002185;28;20058;-53
2023/08/31 10:23:35;;;;;;;4.10;1.90;;;17.70;53.10;;;18.36;43.96;97431.72;5005211;28;20049;-52
2023/08/31 10:26:06;;;;;;;5.55;2.42;;;17.70;51.80;;;18.38;44.54;97423.38;5003783;28;20535;-54
2023/08/31 10:28:41;;;;;;;5.45;2.00;;;17.80;53.70;;;18.37;43.21;97427.97;5003867;28;20050;-54
2023/08/31 10:31:17;;;;;;;3.90;2.05;;;17.80;50.60;;;18.45;42.42;97427.69;5005363;28;20045;-53